createdAt,value
2017-11-26T00:01:02.937Z,95.93
2017-11-26T00:02:15.641Z,95.54
2017-11-26T00:03:28.324Z,96.51
2017-11-26T00:04:41.048Z,96.61
2017-11-26T00:05:53.783Z,96.31
2017-11-26T00:07:06.076Z,96.89
2017-11-26T00:08:19.386Z,97.47
2017-11-26T00:09:32.055Z,98.05
2017-11-26T00:10:44.834Z,97.96
2017-11-26T00:11:57.557Z,98.34
2017-11-26T00:13:10.318Z,98.63
2017-11-26T00:14:22.592Z,98.34
2017-11-26T00:15:34.813Z,98.25
2017-11-26T00:16:47.523Z,99.02
2017-11-26T00:18:00.258Z,99.02
2017-11-26T00:19:12.970Z,99.79
2017-11-26T00:20:25.640Z,99.88
2017-11-26T00:21:38.379Z,99.99
2017-11-26T00:22:51.163Z,99.99
2017-11-26T00:24:03.888Z,99.99
2017-11-26T00:25:16.646Z,99.84
2017-11-26T00:26:29.350Z,99.99
2017-11-26T00:27:41.689Z,99.99
2017-11-26T00:28:54.461Z,99.99
2017-11-26T00:30:06.272Z,99.99
2017-11-26T00:31:18.581Z,99.99
2017-11-26T00:32:30.905Z,99.99
2017-11-26T00:33:43.225Z,99.99
2017-11-26T00:34:55.562Z,99.99
2017-11-26T00:36:07.375Z,99.99
2017-11-26T00:37:20.083Z,99.99
2017-11-26T00:38:32.834Z,99.99
2017-11-26T00:39:45.602Z,99.99
2017-11-26T00:40:58.261Z,99.93
2017-11-26T00:42:10.972Z,99.99
2017-11-26T00:43:23.289Z,99.99
2017-11-26T00:44:36.016Z,99.99
2017-11-26T00:45:48.261Z,99.98
2017-11-26T00:47:01.021Z,99.99
2017-11-26T00:48:13.293Z,99.99
2017-11-26T00:49:25.973Z,99.69
2017-11-26T00:50:38.667Z,99.6
2017-11-26T00:51:50.944Z,99.02
2017-11-26T00:53:03.197Z,98.54
2017-11-26T00:54:15.435Z,98.54
2017-11-26T00:55:28.201Z,99.21
2017-11-26T00:56:40.406Z,98.92
2017-11-26T00:57:52.644Z,98.25
2017-11-26T00:59:04.913Z,98.44
2017-11-26T01:00:17.713Z,98.63
2017-11-26T01:01:30.430Z,97.86
2017-11-26T01:02:43.142Z,98.25
2017-11-26T01:03:55.363Z,97.38
2017-11-26T01:05:08.072Z,97.19
2017-11-26T01:06:20.761Z,97.47
2017-11-26T01:07:33.046Z,97.09
2017-11-26T01:08:45.748Z,97.09
2017-11-26T01:09:58.512Z,97.28
2017-11-26T01:11:11.256Z,96.89
2017-11-26T01:12:23.978Z,96.94
2017-11-26T01:13:36.285Z,97.33
2017-11-26T01:14:48.717Z,96.94
2017-11-26T01:16:01.478Z,96.56
2017-11-26T01:17:14.257Z,96.46
2017-11-26T01:18:26.568Z,97.14
2017-11-26T01:19:39.268Z,96.75
2017-11-26T01:20:51.917Z,96.75
2017-11-26T01:22:04.195Z,97.28
2017-11-26T01:23:16.944Z,96.36
2017-11-26T01:24:29.197Z,96.46
2017-11-26T01:25:41.481Z,96.36
2017-11-26T01:26:53.345Z,96.75
2017-11-26T01:28:06.090Z,96.94
2017-11-26T01:29:18.391Z,97.24
2017-11-26T01:30:31.163Z,97.04
2017-11-26T01:31:43.943Z,97.19
2017-11-26T01:32:56.659Z,96.7
2017-11-26T01:34:08.504Z,96.89
2017-11-26T01:35:21.245Z,96.7
2017-11-26T01:36:33.501Z,96.75
2017-11-26T01:37:46.229Z,96.56
2017-11-26T01:38:58.897Z,96.56
2017-11-26T01:40:11.616Z,96.36
2017-11-26T01:41:23.898Z,96.36
2017-11-26T01:42:36.646Z,96.17
2017-11-26T01:43:48.900Z,96.26
2017-11-26T01:45:01.673Z,95.98
2017-11-26T01:46:14.431Z,96.08
2017-11-26T01:47:27.147Z,96.26
2017-11-26T01:48:39.860Z,96.66
2017-11-26T01:49:52.589Z,96.12
2017-11-26T01:51:04.436Z,96.66
2017-11-26T01:52:16.714Z,96.56
2017-11-26T01:53:29.455Z,96.46
2017-11-26T01:54:42.171Z,96.41
2017-11-26T01:55:54.940Z,96.26
2017-11-26T01:57:07.768Z,97.14
2017-11-26T01:58:19.613Z,97.19
2017-11-26T01:59:32.329Z,96.8
2017-11-26T02:00:44.602Z,97.09
2017-11-26T02:01:57.242Z,96.66
2017-11-26T02:03:10.001Z,97.33
2017-11-26T02:04:22.722Z,97.77
2017-11-26T02:05:35.470Z,97.47
2017-11-26T02:06:48.222Z,97.86
2017-11-26T02:08:00.926Z,98.1
2017-11-26T02:09:13.612Z,98.1
2017-11-26T02:10:26.312Z,97.81
2017-11-26T02:11:38.620Z,97.33
2017-11-26T02:12:51.324Z,97.42
2017-11-26T02:14:03.978Z,98.1
2017-11-26T02:15:16.247Z,98
2017-11-26T02:16:28.503Z,98.2
2017-11-26T02:17:41.244Z,97.52
2017-11-26T02:18:53.926Z,96.75
2017-11-26T02:20:06.600Z,97.04
2017-11-26T02:21:19.320Z,97.42
2017-11-26T02:22:32.019Z,97.04
2017-11-26T02:23:44.790Z,97.04
2017-11-26T02:24:57.583Z,97.33
2017-11-26T02:26:09.925Z,97.04
2017-11-26T02:27:22.665Z,96.66
2017-11-26T02:28:35.342Z,96.56
2017-11-26T02:29:48.041Z,97.14
2017-11-26T02:31:00.754Z,97.14
2017-11-26T02:32:13.474Z,97.62
2017-11-26T02:33:26.141Z,98.44
2017-11-26T02:34:38.466Z,98.3
2017-11-26T02:35:51.243Z,98
2017-11-26T02:37:03.989Z,98.1
2017-11-26T02:38:16.716Z,97.91
2017-11-26T02:39:29.472Z,97.38
2017-11-26T02:40:41.762Z,97.04
2017-11-26T02:41:54.579Z,97.67
2017-11-26T02:43:07.402Z,98.1
2017-11-26T02:44:20.178Z,97.52
2017-11-26T02:45:32.973Z,98.3
2017-11-26T02:46:45.812Z,98.2
2017-11-26T02:47:58.613Z,98.39
2017-11-26T02:49:11.403Z,98.39
2017-11-26T02:50:24.203Z,98.68
2017-11-26T02:51:37.011Z,98
2017-11-26T02:52:49.820Z,97.33
2017-11-26T02:54:02.170Z,97.62
2017-11-26T02:55:14.518Z,98
2017-11-26T02:56:27.352Z,98
2017-11-26T02:57:40.117Z,98.49
2017-11-26T02:58:52.914Z,98.49
2017-11-26T03:00:05.712Z,97.72
2017-11-26T03:01:18.057Z,97.81
2017-11-26T03:02:30.847Z,98.2
2017-11-26T03:03:43.194Z,98
2017-11-26T03:04:55.984Z,98.1
2017-11-26T03:06:07.877Z,97.52
2017-11-26T03:07:20.679Z,97.38
2017-11-26T03:08:33.468Z,97.19
2017-11-26T03:09:46.272Z,97.28
2017-11-26T03:10:59.099Z,96.99
2017-11-26T03:12:11.921Z,97.38
2017-11-26T03:13:24.726Z,96.22
2017-11-26T03:14:37.501Z,96.51
2017-11-26T03:15:50.270Z,96.46
2017-11-26T03:17:03.060Z,96.26
2017-11-26T03:18:15.846Z,96.17
2017-11-26T03:19:28.643Z,96.12
2017-11-26T03:20:41.439Z,96.51
2017-11-26T03:21:54.332Z,97.04
2017-11-26T03:23:07.126Z,96.56
2017-11-26T03:24:19.946Z,97.14
2017-11-26T03:25:32.759Z,97.04
2017-11-26T03:26:45.548Z,96.99
2017-11-26T03:27:58.346Z,96.94
2017-11-26T03:29:11.132Z,97.42
2017-11-26T03:30:23.917Z,96.61
2017-11-26T03:31:36.295Z,97.24
2017-11-26T03:32:49.099Z,96.75
2017-11-26T03:34:01.884Z,96.8
2017-11-26T03:35:14.698Z,96.99
2017-11-26T03:36:27.481Z,97.04
2017-11-26T03:37:40.279Z,96.61
2017-11-26T03:38:53.060Z,97.09
2017-11-26T03:40:05.859Z,96.41
2017-11-26T03:41:18.637Z,96.8
2017-11-26T03:42:31.407Z,96.99
2017-11-26T03:43:44.216Z,97.28
2017-11-26T03:44:56.549Z,96.99
2017-11-26T03:46:09.341Z,96.99
2017-11-26T03:47:22.141Z,96.99
2017-11-26T03:48:34.951Z,96.22
2017-11-26T03:49:47.326Z,96.61
2017-11-26T03:51:00.103Z,96.8
2017-11-26T03:52:12.889Z,99.6
2017-11-26T03:53:25.215Z,99.99
2017-11-26T03:54:38.011Z,99.99
2017-11-26T03:55:50.813Z,99.99
2017-11-26T03:57:03.606Z,99.99
2017-11-26T03:58:16.438Z,99.99
2017-11-26T03:59:28.771Z,99.99
2017-11-26T04:00:41.109Z,99.99
2017-11-26T04:01:53.822Z,99.99
2017-11-26T04:03:06.083Z,99.99
2017-11-26T04:04:18.328Z,99.99
2017-11-26T04:05:30.669Z,99.99
2017-11-26T04:06:43.449Z,99.99
2017-11-26T04:07:56.176Z,99.99
2017-11-26T04:09:08.437Z,99.99
2017-11-26T04:10:21.178Z,99.99
2017-11-26T04:11:33.897Z,99.99
2017-11-26T04:12:46.624Z,99.99
2017-11-26T04:13:59.325Z,99.99
2017-11-26T04:15:12.050Z,99.99
2017-11-26T04:16:24.367Z,99.99
2017-11-26T04:17:36.642Z,99.99
2017-11-26T04:18:49.395Z,99.99
2017-11-26T04:20:01.672Z,99.99
2017-11-26T04:21:14.387Z,99.99
2017-11-26T04:22:26.715Z,99.99
2017-11-26T04:23:39.015Z,99.99
2017-11-26T04:24:51.760Z,99.99
2017-11-26T04:26:04.446Z,99.99
2017-11-26T04:27:16.750Z,99.99
2017-11-26T04:28:29.432Z,99.99
2017-11-26T04:29:41.651Z,99.99
2017-11-26T04:30:53.915Z,99.99
2017-11-26T04:32:06.622Z,99.99
2017-11-26T04:33:19.588Z,99.99
2017-11-26T04:34:32.328Z,99.99
2017-11-26T04:35:44.677Z,99.99
2017-11-26T04:36:57.455Z,99.99
2017-11-26T04:38:09.773Z,99.99
2017-11-26T04:39:22.089Z,99.99
2017-11-26T04:40:34.833Z,99.99
2017-11-26T04:41:47.644Z,99.99
2017-11-26T04:43:00.422Z,99.99
2017-11-26T04:44:13.206Z,99.99
2017-11-26T04:45:25.519Z,99.99
2017-11-26T04:46:38.329Z,99.99
2017-11-26T04:47:51.093Z,99.99
2017-11-26T04:49:03.415Z,99.99
2017-11-26T04:50:15.763Z,99.99
2017-11-26T04:51:28.080Z,99.99
2017-11-26T04:52:40.824Z,99.99
2017-11-26T04:53:53.599Z,99.99
2017-11-26T04:55:06.371Z,99.99
2017-11-26T04:56:19.159Z,99.99
2017-11-26T04:57:31.955Z,99.99
2017-11-26T04:58:44.738Z,99.99
2017-11-26T04:59:57.506Z,99.99
2017-11-26T05:01:09.820Z,99.99
2017-11-26T05:02:22.622Z,99.99
2017-11-26T05:03:35.414Z,99.99
2017-11-26T05:04:48.199Z,99.99
2017-11-26T05:06:00.979Z,99.99
2017-11-26T05:07:13.765Z,99.99
2017-11-26T05:08:25.644Z,99.99
2017-11-26T05:09:38.430Z,99.99
2017-11-26T05:10:51.237Z,99.99
2017-11-26T05:12:04.032Z,99.99
2017-11-26T05:13:16.398Z,99.99
2017-11-26T05:14:29.175Z,99.99
2017-11-26T05:15:42.052Z,99.99
2017-11-26T05:16:54.401Z,99.99
2017-11-26T05:18:07.218Z,99.99
2017-11-26T05:19:20.037Z,99.99
2017-11-26T05:20:32.826Z,99.99
2017-11-26T05:21:45.629Z,99.99
2017-11-26T05:22:58.460Z,99.99
2017-11-26T05:24:11.237Z,99.99
2017-11-26T05:25:23.095Z,99.99
2017-11-26T05:26:35.853Z,99.99
2017-11-26T05:27:48.631Z,99.99
2017-11-26T05:29:01.413Z,99.99
2017-11-26T05:30:14.192Z,99.99
2017-11-26T05:31:26.966Z,99.99
2017-11-26T05:32:39.754Z,99.99
2017-11-26T05:33:52.046Z,99.99
2017-11-26T05:35:04.720Z,99.99
2017-11-26T05:36:17.492Z,99.99
2017-11-26T05:37:30.211Z,99.99
2017-11-26T05:38:42.464Z,99.99
2017-11-26T05:39:55.226Z,99.99
2017-11-26T05:41:07.891Z,99.99
2017-11-26T05:42:20.557Z,99.99
2017-11-26T05:43:33.322Z,99.99
2017-11-26T05:44:46.068Z,99.99
2017-11-26T05:45:58.358Z,99.99
2017-11-26T05:47:11.042Z,99.99
2017-11-26T05:48:23.821Z,99.99
2017-11-26T05:49:36.522Z,99.99
2017-11-26T05:50:49.225Z,99.99
2017-11-26T05:52:01.939Z,99.99
2017-11-26T05:53:14.656Z,99.99
2017-11-26T05:54:27.474Z,99.99
2017-11-26T05:55:40.156Z,99.99
2017-11-26T05:56:52.887Z,99.99
2017-11-26T05:58:05.581Z,99.99
2017-11-26T05:59:18.264Z,99.99
2017-11-26T06:00:30.962Z,99.99
2017-11-26T06:01:43.646Z,99.99
2017-11-26T06:02:56.314Z,99.99
2017-11-26T06:04:08.530Z,99.99
2017-11-26T06:05:21.209Z,99.99
2017-11-26T06:06:33.923Z,99.99
2017-11-26T06:07:46.670Z,99.99
2017-11-26T06:08:59.389Z,99.99
2017-11-26T06:10:11.717Z,99.99
2017-11-26T06:11:24.446Z,99.99
2017-11-26T06:12:37.156Z,99.99
2017-11-26T06:13:49.827Z,99.99
2017-11-26T06:15:02.059Z,99.99
2017-11-26T06:16:14.860Z,99.99
2017-11-26T06:17:27.546Z,99.99
2017-11-26T06:18:40.250Z,99.99
2017-11-26T06:19:52.916Z,99.99
2017-11-26T06:21:05.633Z,99.99
2017-11-26T06:22:18.273Z,99.99
2017-11-26T06:23:30.993Z,99.99
2017-11-26T06:24:43.196Z,99.99
2017-11-26T06:25:55.882Z,99.99
2017-11-26T06:27:08.683Z,99.99
2017-11-26T06:28:21.371Z,99.99
2017-11-26T06:29:33.997Z,99.99
2017-11-26T06:30:46.712Z,99.99
2017-11-26T06:31:59.474Z,99.99
2017-11-26T06:33:12.127Z,99.99
2017-11-26T06:34:24.850Z,99.99
2017-11-26T06:35:37.145Z,99.99
2017-11-26T06:36:49.805Z,99.99
2017-11-26T06:38:02.075Z,99.99
2017-11-26T06:39:14.345Z,99.99
2017-11-26T06:40:26.581Z,99.99
2017-11-26T06:41:39.241Z,99.99
2017-11-26T06:42:51.534Z,99.99
2017-11-26T06:44:03.353Z,99.99
2017-11-26T06:45:15.576Z,99.99
2017-11-26T06:46:27.832Z,99.99
2017-11-26T06:47:40.531Z,99.99
2017-11-26T06:48:53.140Z,99.99
2017-11-26T06:50:05.770Z,99.99
2017-11-26T06:51:18.427Z,99.99
2017-11-26T06:52:31.063Z,99.99
2017-11-26T06:53:43.268Z,99.99
2017-11-26T06:54:55.462Z,99.99
2017-11-26T06:56:07.722Z,99.99
2017-11-26T06:57:20.377Z,99.99
2017-11-26T06:58:33.047Z,99.99
2017-11-26T06:59:45.701Z,99.99
2017-11-26T07:00:57.930Z,99.99
2017-11-26T07:02:10.606Z,99.99
2017-11-26T07:03:23.316Z,99.99
2017-11-26T07:04:35.967Z,99.99
2017-11-26T07:05:48.673Z,99.99
2017-11-26T07:07:01.350Z,99.99
2017-11-26T07:08:14.015Z,99.99
2017-11-26T07:09:26.660Z,99.99
2017-11-26T07:10:38.859Z,99.99
2017-11-26T07:11:51.540Z,99.99
2017-11-26T07:13:03.762Z,99.99
2017-11-26T07:14:16.003Z,99.99
2017-11-26T07:15:28.210Z,99.99
2017-11-26T07:16:40.452Z,99.99
2017-11-26T07:17:53.199Z,99.99
2017-11-26T07:19:05.907Z,99.99
2017-11-26T07:20:18.620Z,99.99
2017-11-26T07:21:30.886Z,99.99
2017-11-26T07:22:43.616Z,99.99
2017-11-26T07:23:56.304Z,99.99
2017-11-26T07:25:09.004Z,99.99
2017-11-26T07:26:21.709Z,99.99
2017-11-26T07:27:34.372Z,99.99
2017-11-26T07:28:46.604Z,99.99
2017-11-26T07:29:59.294Z,99.99
2017-11-26T07:31:12.016Z,99.99
2017-11-26T07:32:24.706Z,99.99
2017-11-26T07:33:37.376Z,99.99
2017-11-26T07:34:49.556Z,99.99
2017-11-26T07:36:02.202Z,99.99
2017-11-26T07:37:14.908Z,99.99
2017-11-26T07:38:27.564Z,99.99
2017-11-26T07:39:40.186Z,99.99
2017-11-26T07:40:52.900Z,99.99
2017-11-26T07:42:05.171Z,99.99
2017-11-26T07:43:17.367Z,99.99
2017-11-26T07:44:30.048Z,99.99
2017-11-26T07:45:42.708Z,99.99
2017-11-26T07:46:55.372Z,99.99
2017-11-26T07:48:07.606Z,99.99
2017-11-26T07:49:20.239Z,99.99
2017-11-26T07:50:32.445Z,99.99
2017-11-26T07:51:45.141Z,99.99
2017-11-26T07:52:57.853Z,99.99
2017-11-26T07:54:10.523Z,99.99
2017-11-26T07:55:23.136Z,99.99
2017-11-26T07:56:35.797Z,99.99
2017-11-26T07:57:48.429Z,99.99
2017-11-26T07:59:01.023Z,99.99
2017-11-26T08:00:13.654Z,99.99
2017-11-26T08:01:26.325Z,99.99
2017-11-26T08:02:38.515Z,99.99
2017-11-26T08:03:51.199Z,99.99
2017-11-26T08:05:03.800Z,99.99
2017-11-26T08:06:15.632Z,99.99
2017-11-26T08:07:28.370Z,99.99
2017-11-26T08:08:40.996Z,99.99
2017-11-26T08:09:53.250Z,99.99
2017-11-26T08:11:05.876Z,99.99
2017-11-26T08:12:18.074Z,99.99
2017-11-26T08:13:30.323Z,99.99
2017-11-26T08:14:42.946Z,99.99
2017-11-26T08:15:55.144Z,99.99
2017-11-26T08:17:07.317Z,99.99
2017-11-26T08:18:19.531Z,99.99
2017-11-26T08:19:32.103Z,99.99
2017-11-26T08:20:44.770Z,99.99
2017-11-26T08:21:57.004Z,99.99
2017-11-26T08:23:09.719Z,99.99
2017-11-26T08:24:22.411Z,99.99
2017-11-26T08:25:35.098Z,99.99
2017-11-26T08:26:47.818Z,99.99
2017-11-26T08:28:00.474Z,99.99
2017-11-26T08:29:12.658Z,99.99
2017-11-26T08:30:25.306Z,99.99
2017-11-26T08:31:37.893Z,99.99
2017-11-26T08:32:50.591Z,99.99
2017-11-26T08:34:03.256Z,99.99
2017-11-26T08:35:15.439Z,99.99
2017-11-26T08:36:28.156Z,99.99
2017-11-26T08:37:40.787Z,99.99
2017-11-26T08:38:53.477Z,99.99
2017-11-26T08:40:05.721Z,99.99
2017-11-26T08:41:18.436Z,99.99
2017-11-26T08:42:31.114Z,99.99
2017-11-26T08:43:43.803Z,99.99
2017-11-26T08:44:56.496Z,99.99
2017-11-26T08:46:08.784Z,99.99
2017-11-26T08:47:21.415Z,99.99
2017-11-26T08:48:34.068Z,99.99
2017-11-26T08:49:46.731Z,99.99
2017-11-26T08:50:59.422Z,99.99
2017-11-26T08:52:11.674Z,99.99
2017-11-26T08:53:23.949Z,99.99
2017-11-26T08:54:36.619Z,99.99
2017-11-26T08:55:48.871Z,99.99
2017-11-26T08:57:01.049Z,99.99
2017-11-26T08:58:13.684Z,99.99
2017-11-26T08:59:26.257Z,99.99
2017-11-26T09:00:38.838Z,99.99
2017-11-26T09:01:51.456Z,99.99
2017-11-26T09:03:03.992Z,99.99
2017-11-26T09:04:16.577Z,99.99
2017-11-26T09:05:29.133Z,99.99
2017-11-26T09:06:41.744Z,99.99
2017-11-26T09:07:54.322Z,99.99
2017-11-26T09:09:06.936Z,99.99
2017-11-26T09:10:19.525Z,99.99
2017-11-26T09:11:32.073Z,99.99
2017-11-26T09:12:44.627Z,99.99
2017-11-26T09:13:57.251Z,99.99
2017-11-26T09:15:09.872Z,99.99
2017-11-26T09:16:22.546Z,99.99
2017-11-26T09:17:35.165Z,99.99
2017-11-26T09:18:47.816Z,99.99
2017-11-26T09:20:00.410Z,99.99
2017-11-26T09:21:12.551Z,99.99
2017-11-26T09:22:24.297Z,99.99
2017-11-26T09:23:36.916Z,99.99
2017-11-26T09:24:49.051Z,99.99
2017-11-26T09:26:01.693Z,99.99
2017-11-26T09:27:13.870Z,99.99
2017-11-26T09:28:26.021Z,99.99
2017-11-26T09:29:38.176Z,99.99
2017-11-26T09:30:50.326Z,99.99
2017-11-26T09:32:02.066Z,99.99
2017-11-26T09:33:14.658Z,99.99
2017-11-26T09:34:27.255Z,99.99
2017-11-26T09:35:39.420Z,99.99
2017-11-26T09:36:52.029Z,99.99
2017-11-26T09:38:04.646Z,99.99
2017-11-26T09:39:17.280Z,99.99
2017-11-26T09:40:29.920Z,99.99
2017-11-26T09:41:42.554Z,99.99
2017-11-26T09:42:55.227Z,99.99
2017-11-26T09:44:07.864Z,99.99
2017-11-26T09:45:20.557Z,99.99
2017-11-26T09:46:32.706Z,99.99
2017-11-26T09:47:45.348Z,99.99
2017-11-26T09:48:57.591Z,99.99
2017-11-26T09:50:10.387Z,99.99
2017-11-26T09:51:23.049Z,99.99
2017-11-26T09:52:35.686Z,99.99
2017-11-26T09:53:47.970Z,99.99
2017-11-26T09:55:00.580Z,99.99
2017-11-26T09:56:12.387Z,99.99
2017-11-26T09:57:24.603Z,99.99
2017-11-26T09:58:37.322Z,99.99
2017-11-26T09:59:49.983Z,99.99
2017-11-26T10:01:02.679Z,99.99
2017-11-26T10:02:14.926Z,99.99
2017-11-26T10:03:27.602Z,99.99
2017-11-26T10:04:39.829Z,99.99
2017-11-26T10:05:52.106Z,99.99
2017-11-26T10:07:03.894Z,99.99
2017-11-26T10:08:16.572Z,99.99
2017-11-26T10:09:29.271Z,99.99
2017-11-26T10:10:42.049Z,99.99
2017-11-26T10:11:54.272Z,99.99
2017-11-26T10:13:06.947Z,99.99
2017-11-26T10:14:19.644Z,99.99
2017-11-26T10:15:32.323Z,99.99
2017-11-26T10:16:45.039Z,99.99
2017-11-26T10:17:57.677Z,99.99
2017-11-26T10:19:10.371Z,99.99
2017-11-26T10:20:23.069Z,99.99
2017-11-26T10:21:35.295Z,99.99
2017-11-26T10:22:47.557Z,99.99
2017-11-26T10:24:00.201Z,99.99
2017-11-26T10:25:12.862Z,99.99
2017-11-26T10:26:24.652Z,99.99
2017-11-26T10:27:37.299Z,99.99
2017-11-26T10:28:49.963Z,99.99
2017-11-26T10:30:02.667Z,99.99
2017-11-26T10:31:14.917Z,99.99
2017-11-26T10:32:27.180Z,99.99
2017-11-26T10:33:39.405Z,99.99
2017-11-26T10:34:52.097Z,99.99
2017-11-26T10:36:04.817Z,99.99
2017-11-26T10:37:17.478Z,99.99
2017-11-26T10:38:30.146Z,99.99
2017-11-26T10:39:42.829Z,99.99
2017-11-26T10:40:55.522Z,99.99
2017-11-26T10:42:08.183Z,99.99
2017-11-26T10:43:20.414Z,99.99
2017-11-26T10:44:32.659Z,99.99
2017-11-26T10:45:44.958Z,99.99
2017-11-26T10:46:57.719Z,99.99
2017-11-26T10:48:10.452Z,99.99
2017-11-26T10:49:23.143Z,99.99
2017-11-26T10:50:35.836Z,99.99
2017-11-26T10:51:48.552Z,99.99
2017-11-26T10:53:01.239Z,99.99
2017-11-26T10:54:14.001Z,99.99
2017-11-26T10:55:26.724Z,99.99
2017-11-26T10:56:38.497Z,99.99
2017-11-26T10:57:51.245Z,99.99
2017-11-26T10:59:03.081Z,99.99
2017-11-26T11:00:15.832Z,99.99
2017-11-26T11:01:28.102Z,99.99
2017-11-26T11:02:40.341Z,99.99
2017-11-26T11:03:52.618Z,99.99
2017-11-26T11:05:05.311Z,99.99
2017-11-26T11:06:17.616Z,99.99
2017-11-26T11:07:29.866Z,99.99
2017-11-26T11:08:42.556Z,99.99
2017-11-26T11:09:55.277Z,99.99
2017-11-26T11:11:07.582Z,99.99
2017-11-26T11:12:19.893Z,99.99
2017-11-26T11:13:32.608Z,99.99
2017-11-26T11:14:44.898Z,99.99
2017-11-26T11:15:57.653Z,99.99
2017-11-26T11:17:09.963Z,99.99
2017-11-26T11:18:22.259Z,99.99
2017-11-26T11:19:34.560Z,99.99
2017-11-26T11:20:47.300Z,99.99
2017-11-26T11:22:00.048Z,99.99
2017-11-26T11:23:12.818Z,99.99
2017-11-26T11:24:25.577Z,99.99
2017-11-26T11:25:38.334Z,99.99
2017-11-26T11:26:50.617Z,99.99
2017-11-26T11:28:03.371Z,99.99
2017-11-26T11:29:16.118Z,99.99
2017-11-26T11:30:28.864Z,99.99
2017-11-26T11:31:41.605Z,99.99
2017-11-26T11:32:54.358Z,99.99
2017-11-26T11:34:07.109Z,99.99
2017-11-26T11:35:19.410Z,99.99
2017-11-26T11:36:32.153Z,99.99
2017-11-26T11:37:44.925Z,99.99
2017-11-26T11:38:57.666Z,99.99
2017-11-26T11:40:10.405Z,99.99
2017-11-26T11:41:23.162Z,99.99
2017-11-26T11:42:35.477Z,99.99
2017-11-26T11:43:48.237Z,99.99
2017-11-26T11:45:00.982Z,99.99
2017-11-26T11:46:13.746Z,99.99
2017-11-26T11:47:26.065Z,99.99
2017-11-26T11:48:38.837Z,99.99
2017-11-26T11:49:51.167Z,99.99
2017-11-26T11:51:03.957Z,99.99
2017-11-26T11:52:16.719Z,99.99
2017-11-26T11:53:29.486Z,99.99
2017-11-26T11:54:42.269Z,99.99
2017-11-26T11:55:55.058Z,99.99
2017-11-26T11:57:07.828Z,99.99
2017-11-26T11:58:20.151Z,99.99
2017-11-26T11:59:32.943Z,99.99
2017-11-26T12:00:45.722Z,99.99
2017-11-26T12:01:57.586Z,99.99
2017-11-26T12:03:09.916Z,99.99
2017-11-26T12:04:22.679Z,99.99
2017-11-26T12:05:35.469Z,99.99
2017-11-26T12:06:48.272Z,99.99
2017-11-26T12:08:01.044Z,99.99
2017-11-26T12:09:13.829Z,99.99
2017-11-26T12:10:26.614Z,99.99
2017-11-26T12:11:39.418Z,99.99
2017-11-26T12:12:52.196Z,99.99
2017-11-26T12:14:04.541Z,99.99
2017-11-26T12:15:17.340Z,98.63
2017-11-26T12:16:30.126Z,98.63
2017-11-26T12:17:42.937Z,98.15
2017-11-26T12:18:55.720Z,99.89
2017-11-26T12:20:08.495Z,99.21
2017-11-26T12:21:21.210Z,98.97
2017-11-26T12:22:33.510Z,97.91
2017-11-26T12:23:45.826Z,96.36
2017-11-26T12:24:58.607Z,95.59
2017-11-26T12:26:11.402Z,96.02
2017-11-26T12:27:23.697Z,93.51
2017-11-26T12:28:36.043Z,92.1
2017-11-26T12:29:48.859Z,91.24
2017-11-26T12:31:01.632Z,91.62
2017-11-26T12:32:14.477Z,91.14
2017-11-26T12:33:27.316Z,90.65
2017-11-26T12:34:39.700Z,91.33
2017-11-26T12:35:52.508Z,92.2
2017-11-26T12:37:05.339Z,91.62
2017-11-26T12:38:18.157Z,91.72
2017-11-26T12:39:31.002Z,90.56
2017-11-26T12:40:43.337Z,90.84
2017-11-26T12:41:56.222Z,90.8
2017-11-26T12:43:09.062Z,90.8
2017-11-26T12:44:21.818Z,89.34
2017-11-26T12:45:34.607Z,88.67
2017-11-26T12:46:46.983Z,89.09
2017-11-26T12:47:59.726Z,84.93
2017-11-26T12:49:12.438Z,85.61
2017-11-26T12:50:25.227Z,85.61
2017-11-26T12:51:37.928Z,85.8
2017-11-26T12:52:50.227Z,84.64
2017-11-26T12:54:02.964Z,83.48
2017-11-26T12:55:15.711Z,83
2017-11-26T12:56:28.475Z,83.18
2017-11-26T12:57:40.757Z,82.7
2017-11-26T12:58:53.085Z,83.28
2017-11-26T13:00:05.397Z,83.86
2017-11-26T13:01:17.680Z,82.17
2017-11-26T13:02:30.439Z,81.48
2017-11-26T13:03:43.198Z,81.13
2017-11-26T13:04:55.464Z,79
2017-11-26T13:06:07.771Z,80.07
2017-11-26T13:07:20.573Z,79.39
2017-11-26T13:08:33.298Z,78.46
2017-11-26T13:09:46.025Z,78.46
2017-11-26T13:10:58.305Z,78.46
2017-11-26T13:12:10.539Z,77.39
2017-11-26T13:13:23.266Z,77.34
2017-11-26T13:14:35.957Z,75.98
2017-11-26T13:15:47.732Z,75.82
2017-11-26T13:16:59.536Z,75.98
2017-11-26T13:18:11.800Z,76.46
2017-11-26T13:19:24.467Z,76.27
2017-11-26T13:20:37.204Z,77.43
2017-11-26T13:21:49.903Z,77.59
2017-11-26T13:23:02.787Z,78.56
2017-11-26T13:24:15.495Z,77.36
2017-11-26T13:25:28.257Z,77.78
2017-11-26T13:26:40.960Z,78.36
2017-11-26T13:27:53.198Z,77.69
2017-11-26T13:29:05.939Z,78.17
2017-11-26T13:30:18.603Z,77.59
2017-11-26T13:31:31.364Z,76.91
2017-11-26T13:32:44.064Z,77.39
2017-11-26T13:33:55.950Z,74.97
2017-11-26T13:35:08.235Z,75.68
2017-11-26T13:36:20.981Z,74.75
2017-11-26T13:37:33.691Z,74.81
2017-11-26T13:38:46.382Z,74.91
2017-11-26T13:39:59.112Z,76.32
2017-11-26T13:41:11.873Z,75.07
2017-11-26T13:42:24.589Z,74.91
2017-11-26T13:43:36.852Z,75.88
2017-11-26T13:44:49.595Z,74.91
2017-11-26T13:46:02.356Z,74.71
2017-11-26T13:47:14.648Z,75.49
2017-11-26T13:48:27.385Z,75.16
2017-11-26T13:49:40.076Z,76.04
2017-11-26T13:50:52.757Z,75.84
2017-11-26T13:52:05.458Z,76.04
2017-11-26T13:53:18.187Z,76.81
2017-11-26T13:54:30.983Z,77.36
2017-11-26T13:55:43.779Z,77.45
2017-11-26T13:56:56.087Z,78.23
2017-11-26T13:58:08.831Z,78.13
2017-11-26T13:59:21.173Z,77.45
2017-11-26T14:00:33.973Z,77.36
2017-11-26T14:01:46.715Z,76.48
2017-11-26T14:02:59.470Z,76.48
2017-11-26T14:04:11.807Z,77.26
2017-11-26T14:05:24.580Z,77.36
2017-11-26T14:06:37.416Z,76.87
2017-11-26T14:07:49.767Z,76.39
2017-11-26T14:09:02.577Z,76.48
2017-11-26T14:10:15.322Z,76.78
2017-11-26T14:11:27.640Z,77.36
2017-11-26T14:12:40.410Z,76.87
2017-11-26T14:13:53.178Z,76.78
2017-11-26T14:15:05.502Z,75.45
2017-11-26T14:16:18.255Z,74.13
2017-11-26T14:17:30.977Z,74.91
2017-11-26T14:18:43.729Z,74.13
2017-11-26T14:19:56.023Z,74.46
2017-11-26T14:21:08.394Z,72.81
2017-11-26T14:22:20.279Z,73.1
2017-11-26T14:23:33.098Z,72.81
2017-11-26T14:24:45.876Z,72.52
2017-11-26T14:25:58.695Z,72.71
2017-11-26T14:27:11.476Z,73.39
2017-11-26T14:28:23.821Z,73.55
2017-11-26T14:29:36.552Z,74.33
2017-11-26T14:30:49.319Z,74.23
2017-11-26T14:32:01.640Z,74.91
2017-11-26T14:33:14.413Z,75.16
2017-11-26T14:34:27.164Z,76
2017-11-26T14:35:39.904Z,76.68
2017-11-26T14:36:52.632Z,76.29
2017-11-26T14:38:04.987Z,76.58
2017-11-26T14:39:17.302Z,76.68
2017-11-26T14:40:30.106Z,77.36
2017-11-26T14:41:42.902Z,76.29
2017-11-26T14:42:55.688Z,76.48
2017-11-26T14:44:08.508Z,75.9
2017-11-26T14:45:21.334Z,75.81
2017-11-26T14:46:33.608Z,75.51
2017-11-26T14:47:45.920Z,76.23
2017-11-26T14:48:58.688Z,74.77
2017-11-26T14:50:11.405Z,74.81
2017-11-26T14:51:24.162Z,74.62
2017-11-26T14:52:36.925Z,74.23
2017-11-26T14:53:49.651Z,74.52
2017-11-26T14:55:01.970Z,74.13
2017-11-26T14:56:14.704Z,73.55
2017-11-26T14:57:27.478Z,73.55
2017-11-26T14:58:40.201Z,73.55
2017-11-26T14:59:52.939Z,74.39
2017-11-26T15:01:05.285Z,74.19
2017-11-26T15:02:18.039Z,75.65
2017-11-26T15:03:30.828Z,75.45
2017-11-26T15:04:43.155Z,76.39
2017-11-26T15:05:55.440Z,75.36
2017-11-26T15:07:07.724Z,75.65
2017-11-26T15:08:20.019Z,74.77
2017-11-26T15:09:32.805Z,75.26
2017-11-26T15:10:45.585Z,75.36
2017-11-26T15:11:58.370Z,74.39
2017-11-26T15:13:11.162Z,73.67
2017-11-26T15:14:23.513Z,74.26
2017-11-26T15:15:36.282Z,74.77
2017-11-26T15:16:49.077Z,74.74
2017-11-26T15:18:01.398Z,74.29
2017-11-26T15:19:13.726Z,74.1
2017-11-26T15:20:26.499Z,72.55
2017-11-26T15:21:39.290Z,72.87
2017-11-26T15:22:52.033Z,72.49
2017-11-26T15:24:04.891Z,72.09
2017-11-26T15:25:16.817Z,71.74
2017-11-26T15:26:29.695Z,71.36
2017-11-26T15:27:42.476Z,71.36
2017-11-26T15:28:54.955Z,71.22
2017-11-26T15:30:07.821Z,71.12
2017-11-26T15:31:20.709Z,71.7
2017-11-26T15:32:33.558Z,71.55
2017-11-26T15:33:46.511Z,71.61
2017-11-26T15:34:59.312Z,72.09
2017-11-26T15:36:12.110Z,72.29
2017-11-26T15:37:24.442Z,72.09